This is the latest recevied weather packets stored in our database for station/object W4SPD. If no packets are shown the sender has not sent any weather packets the latest 1 day(s).
| Time | Temp. | Humidity | Pressure | Rain* | Wind** | Luminosity | Snow |
|---|---|---|---|---|---|---|---|
| 1778096201 | 26.11° C | 69% | - | 0 mm | - | - | - |
| 1778094683 | 25° C | 73% | - | 0 mm | - | - | - |
| 1778094381 | 25° C | 73% | - | 0 mm | - | - | - |
| 1778093775 | 25° C | 72% | - | 0 mm | - | - | - |
| 1778092258 | 25° C | 72% | - | 0 mm | - | - | - |
| 1778090137 | 25.56° C | 71% | - | 0 mm | - | - | - |
| 1778089228 | 25.56° C | 70% | - | 0 mm | - | - | - |
| 1778088320 | 25° C | 72% | - | 0 mm | - | - | - |
| 1778087714 | 25° C | 73% | - | 0 mm | - | - | - |
| 1778087411 | 25° C | 71% | - | 0 mm | - | - | - |
| 1778086806 | 25.56° C | 70% | - | 0 mm | - | - | - |
| 1778082867 | 21.67° C | 80% | - | 0 mm | - | - | - |
| 1778080538 | 20.56° C | 82% | - | 0 mm | - | - | - |
| 1778080235 | 20.56° C | 83% | - | 0 mm | - | - | - |
| 1778078719 | 20.56° C | 83% | - | 0 mm | - | - | - |
| 1778078417 | 20.56° C | 82% | - | 0 mm | - | - | - |
| 1778078114 | 20.56° C | 82% | - | 0 mm | - | - | - |
| 1778077813 | 20.56° C | 83% | - | 0 mm | - | - | - |
| 1778077208 | 20.56° C | 81% | - | 0 mm | - | - | - |
| 1778074177 | 20.56° C | 82% | - | 0 mm | - | - | - |
| 1778072360 | 20° C | 83% | - | 0 mm | - | - | - |
| 1778072058 | 19.44° C | 83% | - | 0 mm | - | - | - |
| 1778070242 | 18.89° C | 85% | - | 0 mm | - | - | - |
| 1778069334 | 18.89° C | 85% | - | 0 mm | - | - | - |
| 1778069032 | 18.89° C | 85% | - | 0 mm | - | - | - |
* Rain latest hour (hover to see other rain measurements)
** Current wind speed in m/s (hover to see current wind gust speed)